Terminal Aerodrome Forecast
Issued by NWS

Home | Current Version | Previous Version | Graphics & Text | Print | Product List | Glossary On
Versions: 1 2 3 4 5 6 7 8 9 10 11 12 13 14 15 16 17 18 19 20 21 22 23 24 25
000
FTUS41 KCLE 230300 AAB
TAFFDY
TAF AMD
KFDY 230315Z 2303/2324 29004KT P6SM BKN035
     FM230900 VRB03KT P6SM SKC
      TEMPO 2311/2314 4SM BR
     FM231500 28005KT P6SM SCT250=

USA.gov is the U.S. government's official web portal to all federal, state and local government web resources and services.